Time;durP1;ratioP1;P1;durP2;ratioP2;P2;SDS_P1;SDS_P2;PMS_P1;PMS_P2;Temp;Humidity;BMP_temperature;BMP_pressure;BME280_temperature;BME280_humidity;BME280_pressure;Samples;Min_cycle;Max_cycle;Signal;HPM_P1;HPM_P2
2022/06/08 00:02:03;;;;;;;;;5.25;2.75;;;;;-143.57;100.00;65101.44;5098706;27;46183;-54
2022/06/08 00:04:29;;;;;;;;;3.25;2.00;;;;;-143.57;100.00;65101.44;5099051;27;45333;-55
2022/06/08 00:06:55;;;;;;;;;5.00;1.25;;;;;-143.57;100.00;65101.44;5099068;27;45370;-53
2022/06/08 00:09:20;;;;;;;;;2.50;1.50;;;;;-143.57;100.00;65101.44;5099061;27;45579;-53
2022/06/08 00:11:46;;;;;;;;;5.50;2.00;;;;;-143.57;100.00;65101.44;5099032;27;46040;-56
2022/06/08 00:14:12;;;;;;;;;2.00;1.75;;;;;-143.57;100.00;65101.44;5099150;27;45443;-55
2022/06/08 00:16:38;;;;;;;;;7.00;4.00;;;;;-143.57;100.00;65101.44;5098157;27;45306;-61
2022/06/08 00:19:03;;;;;;;;;3.25;3.25;;;;;-143.57;100.00;65101.44;5099058;27;45346;-53
2022/06/08 00:21:29;;;;;;;;;4.25;1.00;;;;;-143.57;100.00;65101.44;5080468;27;46046;-55
2022/06/08 00:23:55;;;;;;;;;2.00;2.00;;;;;-143.57;100.00;65101.44;5098527;27;45328;-55
2022/06/08 00:26:20;;;;;;;;;4.00;2.75;;;;;-143.57;100.00;65101.44;5098736;27;45339;-56
2022/06/08 00:28:46;;;;;;;;;3.50;1.75;;;;;-143.57;100.00;65101.44;5098847;27;45445;-56
2022/06/08 00:31:11;;;;;;;;;6.00;2.00;;;;;-143.57;100.00;65101.44;5098407;27;46322;-55
2022/06/08 00:33:37;;;;;;;;;5.75;3.00;;;;;-143.57;100.00;65101.44;5098555;27;45272;-57
2022/06/08 00:36:02;;;;;;;;;3.50;2.00;;;;;-143.57;100.00;65101.44;5098385;27;45405;-53
2022/06/08 00:38:28;;;;;;;;;2.00;2.00;;;;;-143.57;100.00;65101.44;5098790;27;45609;-54
2022/06/08 00:41:32;;;;;;;;;4.25;2.50;;;;;-143.57;100.00;65101.44;5079337;27;46362;-54
2022/06/08 00:44:01;;;;;;;;;4.25;1.50;;;;;-143.57;100.00;65101.44;5098346;27;45204;-53
2022/06/08 00:46:26;;;;;;;;;3.50;3.00;;;;;-143.57;100.00;65101.44;5098244;27;45457;-54
2022/06/08 00:48:56;;;;;;;;;3.00;3.00;;;;;-143.57;100.00;65101.44;5098605;27;45421;-51
2022/06/08 00:51:21;;;;;;;;;2.75;2.00;;;;;-143.57;100.00;65101.44;5098164;27;47227;-55
2022/06/08 00:53:55;;;;;;;;;3.25;3.00;;;;;-143.57;100.00;65101.44;5098135;27;45212;-55
2022/06/08 00:56:29;;;;;;;;;2.50;2.50;;;;;-143.57;100.00;65101.44;5098428;27;45438;-52
2022/06/08 00:58:58;;;;;;;;;1.50;1.50;;;;;-143.57;100.00;65101.44;5098282;27;45379;-55
2022/06/08 01:01:23;;;;;;;;;2.50;2.50;;;;;-143.57;100.00;65101.44;5098098;27;46255;-56
2022/06/08 01:03:49;;;;;;;;;4.00;2.00;;;;;-143.57;100.00;65101.44;5098046;27;45329;-50
2022/06/08 01:06:21;;;;;;;;;2.75;1.50;;;;;-143.57;100.00;65101.44;5098200;27;45348;-48
2022/06/08 01:08:53;;;;;;;;;3.00;3.00;;;;;-143.57;100.00;65101.44;5098249;27;45315;-52
2022/06/08 01:11:44;;;;;;;;;3.50;2.00;;;;;-143.57;100.00;65101.44;5097776;27;45440;-50
2022/06/08 01:14:11;;;;;;;;;4.00;3.00;;;;;-143.57;100.00;65101.44;5098004;27;45220;-49
2022/06/08 01:16:41;;;;;;;;;4.00;2.00;;;;;-143.57;100.00;65101.44;5097796;27;45301;-52
2022/06/08 01:19:09;;;;;;;;;4.00;2.00;;;;;-143.57;100.00;65101.44;5098103;27;45378;-54
2022/06/08 01:21:34;;;;;;;;;4.75;3.25;;;;;-143.57;100.00;65101.44;5079590;27;46263;-52
2022/06/08 01:24:07;;;;;;;;;3.50;1.00;;;;;-143.57;100.00;65101.44;5097711;27;45316;-55
2022/06/08 01:27:16;;;;;;;;;4.00;2.00;;;;;-143.57;100.00;65101.44;5097760;27;45271;-51
2022/06/08 01:29:54;;;;;;;;;5.00;3.00;;;;;-143.57;100.00;65101.44;5088606;27;45408;-53
2022/06/08 01:32:33;;;;;;;;;1.00;1.00;;;;;-143.57;100.00;65101.44;5097505;27;46213;-52
2022/06/08 01:35:29;;;;;;;;;2.75;2.75;;;;;-143.57;100.00;65101.44;5097912;27;45417;-54
2022/06/08 01:38:13;;;;;;;;;3.75;3.00;;;;;-143.57;100.00;65101.44;5097725;27;45244;-56
2022/06/08 01:41:08;;;;;;;;;1.25;1.25;;;;;-143.57;100.00;65101.44;5097750;27;45161;-54
2022/06/08 01:44:06;;;;;;;;;3.00;2.00;;;;;-143.57;100.00;65101.44;5096841;27;45363;-56
2022/06/08 01:46:42;;;;;;;;;4.50;2.25;;;;;-143.57;100.00;65101.44;5096957;27;45461;-55
2022/06/08 01:49:32;;;;;;;;;3.75;1.00;;;;;-143.57;100.00;65101.44;5097530;27;45394;-55
2022/06/08 01:52:17;;;;;;;;;2.00;2.00;;;;;-143.57;100.00;65101.44;5097736;27;45445;-54
2022/06/08 01:54:57;;;;;;;;;3.00;3.00;;;;;-143.57;100.00;65101.44;5097076;27;45811;-53
2022/06/08 01:57:40;;;;;;;;;5.00;2.75;;;;;-143.57;100.00;65101.44;5097214;27;45493;-55
2022/06/08 02:00:10;;;;;;;;;3.75;3.75;;;;;-143.57;100.00;65101.44;5097349;27;45312;-51
2022/06/08 02:03:00;;;;;;;;;5.00;2.75;;;;;-143.57;100.00;65101.44;5097658;27;45826;-53
2022/06/08 02:05:39;;;;;;;;;2.50;2.00;;;;;-143.57;100.00;65101.44;5097269;27;47076;-56
2022/06/08 02:08:18;;;;;;;;;4.00;2.25;;;;;-143.57;100.00;65101.44;5097261;27;45303;-55
2022/06/08 02:11:00;;;;;;;;;2.50;2.50;;;;;-143.57;100.00;65101.44;5097176;27;45274;-55
2022/06/08 02:13:33;;;;;;;;;4.25;3.00;;;;;-143.57;100.00;65101.44;5097494;27;45392;-53
2022/06/08 02:16:07;;;;;;;;;3.75;1.50;;;;;-143.57;100.00;65101.44;5078633;27;47223;-53
2022/06/08 02:18:48;;;;;;;;;4.25;3.00;;;;;-143.57;100.00;65101.44;5096903;27;45265;-52
2022/06/08 02:21:22;;;;;;;;;4.75;2.75;;;;;-143.57;100.00;65101.44;5097316;27;45284;-55
2022/06/08 02:24:01;;;;;;;;;2.25;2.00;;;;;-143.57;100.00;65101.44;5097380;27;45391;-52
2022/06/08 02:26:33;;;;;;;;;2.25;1.00;;;;;-143.57;100.00;65101.44;5096896;27;45452;-52
2022/06/08 02:29:07;;;;;;;;;5.50;2.25;;;;;-143.57;100.00;65101.44;5096860;27;45243;-56
2022/06/08 02:31:39;;;;;;;;;7.00;1.75;;;;;-143.57;100.00;65101.44;5097367;27;45425;-53
2022/06/08 02:34:29;;;;;;;;;4.50;2.75;;;;;-143.57;100.00;65101.44;5097272;27;45573;-55
2022/06/08 02:37:01;;;;;;;;;4.00;2.25;;;;;-143.57;100.00;65101.44;5096695;27;45361;-55
2022/06/08 02:39:32;;;;;;;;;1.25;1.25;;;;;-143.57;100.00;65101.44;5097145;27;45322;-55
2022/06/08 02:42:23;;;;;;;;;3.75;1.25;;;;;-143.57;100.00;65101.44;5100645;27;45322;-55
2022/06/08 02:44:55;;;;;;;;;2.75;2.75;;;;;-143.57;100.00;65101.44;5100760;27;45289;-57
2022/06/08 02:47:30;;;;;;;;;3.50;2.50;;;;;-143.57;100.00;65101.44;5100278;27;46477;-55
2022/06/08 02:49:58;;;;;;;;;7.50;3.00;;;;;-143.57;100.00;65101.44;5100185;27;45401;-55
2022/06/08 02:52:25;;;;;;;;;4.25;2.75;;;;;-143.57;100.00;65101.44;5100292;27;45361;-55
2022/06/08 02:54:52;;;;;;;;;4.00;2.75;;;;;-143.57;100.00;65101.44;5082428;27;45422;-56
2022/06/08 02:57:28;;;;;;;;;2.75;2.00;;;;;-143.57;100.00;65101.44;5099893;27;45892;-53
2022/06/08 03:00:00;;;;;;;;;3.25;1.25;;;;;-143.57;100.00;65101.44;5100096;27;45434;-54
2022/06/08 03:02:28;;;;;;;;;2.75;2.75;;;;;-143.57;100.00;65101.44;5100408;27;45224;-54
2022/06/08 03:05:04;;;;;;;;;2.25;2.25;;;;;-143.57;100.00;65101.44;5100426;27;45388;-54
2022/06/08 03:07:36;;;;;;;;;4.00;2.00;;;;;-143.57;100.00;65101.44;5099920;27;46594;-54
2022/06/08 03:10:07;;;;;;;;;4.33;3.00;;;;;-143.57;100.00;65101.44;5099889;27;45274;-54
2022/06/08 03:12:39;;;;;;;;;3.00;1.75;;;;;-143.57;100.00;65101.44;5100010;27;45363;-54
2022/06/08 03:15:09;;;;;;;;;3.75;1.25;;;;;-143.57;100.00;65101.44;5100070;27;45454;-56
2022/06/08 03:17:37;;;;;;;;;5.00;3.75;;;;;-143.57;100.00;65101.44;5099606;27;45436;-53
2022/06/08 03:20:07;;;;;;;;;5.00;2.50;;;;;-143.57;100.00;65101.44;5099736;27;45391;-55
2022/06/08 03:22:33;;;;;;;;;4.50;3.00;;;;;-143.57;100.00;65101.44;5099811;27;45202;-55
2022/06/08 03:24:58;;;;;;;;;2.25;2.25;;;;;-143.57;100.00;65101.44;5100248;27;45223;-54
2022/06/08 03:27:24;;;;;;;;;4.00;1.25;;;;;-143.57;100.00;65101.44;5099681;27;45974;-54
2022/06/08 03:29:50;;;;;;;;;3.50;1.00;;;;;-143.57;100.00;65101.44;5099634;27;45854;-53
2022/06/08 03:32:16;;;;;;;;;1.00;1.00;;;;;-143.57;100.00;65101.44;5099751;27;45464;-53
2022/06/08 03:34:41;;;;;;;;;4.75;1.25;;;;;-143.57;100.00;65101.44;5099886;27;45263;-56
2022/06/08 03:37:08;;;;;;;;;3.00;3.00;;;;;-143.57;100.00;65101.44;5099425;27;46282;-54
2022/06/08 03:39:33;;;;;;;;;4.00;2.33;;;;;-143.57;100.00;65101.44;5099538;27;45482;-55
2022/06/08 03:41:59;;;;;;;;;4.67;2.33;;;;;-143.57;100.00;65101.44;5099498;27;45354;-55
2022/06/08 03:44:24;;;;;;;;;5.00;2.33;;;;;-143.57;100.00;65101.44;5099792;27;45305;-55
2022/06/08 03:46:54;;;;;;;;;2.33;2.33;;;;;-143.57;100.00;65101.44;5099284;27;45657;-55
2022/06/08 03:49:22;;;;;;;;;4.00;2.33;;;;;-143.57;100.00;65101.44;5099092;27;45307;-56
2022/06/08 03:51:49;;;;;;;;;4.75;3.00;;;;;-143.57;100.00;65101.44;5098987;27;45356;-57
2022/06/08 03:54:19;;;;;;;;;6.00;4.00;;;;;-143.57;100.00;65101.44;5099934;27;45381;-55
2022/06/08 03:56:53;;;;;;;;;3.33;1.67;;;;;-143.57;100.00;65101.44;5099181;27;45377;-53
2022/06/08 03:59:19;;;;;;;;;4.33;3.00;;;;;-143.57;100.00;65101.44;5099183;27;45297;-55
2022/06/08 04:01:44;;;;;;;;;4.00;2.67;;;;;-143.57;100.00;65101.44;5099272;27;45528;-57
2022/06/08 04:04:11;;;;;;;;;3.00;3.00;;;;;-143.57;100.00;65101.44;5099301;27;45401;-54
2022/06/08 04:06:37;;;;;;;;;4.33;3.33;;;;;-143.57;100.00;65101.44;5099183;27;45274;-56
2022/06/08 04:09:03;;;;;;;;;4.67;2.00;;;;;-143.57;100.00;65101.44;5098798;27;45532;-56
2022/06/08 04:11:28;;;;;;;;;3.67;2.33;;;;;-143.57;100.00;65101.44;5098752;27;45403;-54
2022/06/08 04:13:54;;;;;;;;;3.33;3.33;;;;;-143.57;100.00;65101.44;5099121;27;45358;-55
2022/06/08 04:16:19;;;;;;;;;3.00;3.00;;;;;-143.57;100.00;65101.44;5098643;27;47012;-52
2022/06/08 04:18:45;;;;;;;;;8.33;3.67;;;;;-143.57;100.00;65101.44;5098660;27;45415;-53
2022/06/08 04:21:13;;;;;;;;;5.00;3.33;;;;;-143.57;100.00;65101.44;5098795;27;45233;-55
2022/06/08 04:23:41;;;;;;;;;4.67;2.33;;;;;-143.57;100.00;65101.44;5099027;27;45307;-54
2022/06/08 04:26:07;;;;;;;;;4.33;2.67;;;;;-143.57;100.00;65101.44;5114355;27;47294;-52
2022/06/08 04:28:32;;;;;;;;;4.33;3.00;;;;;-143.57;100.00;65101.44;5098294;27;45398;-54
2022/06/08 04:30:58;;;;;;;;;7.33;4.00;;;;;-143.57;100.00;65101.44;5098816;27;45514;-55
2022/06/08 04:33:23;;;;;;;;;6.33;4.00;;;;;-143.57;100.00;65101.44;5098784;27;45433;-53
2022/06/08 04:35:49;;;;;;;;;5.00;3.00;;;;;-143.57;100.00;65101.44;5098592;27;45461;-55
2022/06/08 04:38:16;;;;;;;;;5.00;3.67;;;;;-143.57;100.00;65101.44;5098448;27;45334;-57
2022/06/08 04:40:42;;;;;;;;;3.00;3.00;;;;;-143.57;100.00;65101.44;5098558;27;45418;-55
2022/06/08 04:43:08;;;;;;;;;4.00;3.00;;;;;-143.57;100.00;65101.44;5098444;27;45405;-56
2022/06/08 04:45:35;;;;;;;;;3.67;3.67;;;;;-143.57;100.00;65101.44;5098037;27;45871;-53
2022/06/08 04:48:03;;;;;;;;;5.00;3.33;;;;;-143.57;100.00;65101.44;5098432;27;45228;-54
2022/06/08 04:50:28;;;;;;;;;6.33;2.67;;;;;-143.57;100.00;65101.44;5098398;27;45377;-55
2022/06/08 04:52:54;;;;;;;;;4.33;3.33;;;;;-143.57;100.00;65101.44;5098264;27;45363;-56
2022/06/08 04:55:20;;;;;;;;;2.67;2.67;;;;;-143.57;100.00;65101.44;5098176;27;45513;-55
2022/06/08 04:57:45;;;;;;;;;5.67;2.67;;;;;-143.57;100.00;65101.44;5098172;27;45321;-54
2022/06/08 05:00:17;;;;;;;;;6.00;4.33;;;;;-143.57;100.00;65101.44;5098523;27;45372;-53
2022/06/08 05:02:43;;;;;;;;;7.00;4.33;;;;;-143.57;100.00;65101.44;5098252;27;45402;-55
2022/06/08 05:05:30;;;;;;;;;6.00;6.00;;;;;-143.57;100.00;65101.44;5097925;27;47220;-56
2022/06/08 05:07:56;;;;;;;;;8.00;4.33;;;;;-143.57;100.00;65101.44;5097087;27;45341;-55
2022/06/08 05:10:25;;;;;;;;;3.67;3.67;;;;;-143.57;100.00;65101.44;5098167;27;45332;-55
2022/06/08 05:12:50;;;;;;;;;4.33;3.00;;;;;-143.57;100.00;65101.44;5097985;27;45410;-55
2022/06/08 05:15:19;;;;;;;;;5.67;4.00;;;;;-143.57;100.00;65101.44;5097722;27;46180;-54
2022/06/08 05:17:44;;;;;;;;;6.00;4.00;;;;;-143.57;100.00;65101.44;5097652;27;45301;-55
2022/06/08 05:20:11;;;;;;;;;5.00;2.33;;;;;-143.57;100.00;65101.44;5097951;27;45429;-55
2022/06/08 05:22:38;;;;;;;;;4.00;4.00;;;;;-143.57;100.00;65101.44;5098219;27;45378;-55
2022/06/08 05:25:09;;;;;;;;;7.33;3.00;;;;;-143.57;100.00;65101.44;5097494;27;46871;-53
2022/06/08 05:27:35;;;;;;;;;3.33;3.33;;;;;-143.57;100.00;65101.44;5097503;27;45389;-56
2022/06/08 05:30:00;;;;;;;;;4.33;4.00;;;;;-143.57;100.00;65101.44;5097518;27;45513;-54
2022/06/08 05:32:26;;;;;;;;;3.67;3.33;;;;;-143.57;100.00;65101.44;5097936;27;45299;-55
2022/06/08 05:34:51;;;;;;;;;5.33;5.33;;;;;-143.57;100.00;65101.44;5097482;27;46077;-55
2022/06/08 05:37:17;;;;;;;;;5.67;5.33;;;;;-143.57;100.00;65101.44;5097670;27;45248;-54
2022/06/08 05:39:42;;;;;;;;;9.33;4.33;;;;;-143.57;100.00;65101.44;5097567;27;45405;-52
2022/06/08 05:42:08;;;;;;;;;3.67;2.00;;;;;-143.57;100.00;65101.44;5097731;27;45303;-55
2022/06/08 05:44:35;;;;;;;;;2.33;2.33;;;;;-143.57;100.00;65101.44;5078810;27;46462;-54
2022/06/08 05:47:02;;;;;;;;;2.00;2.00;;;;;-143.57;100.00;65101.44;5097248;27;45447;-55
2022/06/08 05:49:28;;;;;;;;;5.33;4.00;;;;;-143.57;100.00;65101.44;5097382;27;45371;-55
2022/06/08 05:51:53;;;;;;;;;4.67;3.33;;;;;-143.57;100.00;65101.44;5097418;27;45385;-55
2022/06/08 05:54:18;;;;;;;;;3.00;3.00;;;;;-143.57;100.00;65101.44;5097278;27;47122;-53
2022/06/08 05:56:44;;;;;;;;;5.00;3.00;;;;;-143.57;100.00;65101.44;5097443;27;45375;-56
2022/06/08 05:59:09;;;;;;;;;5.00;4.00;;;;;-143.57;100.00;65101.44;5097113;27;45271;-56
2022/06/08 06:01:35;;;;;;;;;6.33;4.33;;;;;-143.57;100.00;65101.44;5097501;27;45355;-55
2022/06/08 06:04:04;;;;;;;;;3.00;2.67;;;;;-143.57;100.00;65101.44;5097001;27;45574;-55
2022/06/08 06:06:31;;;;;;;;;2.33;2.33;;;;;-143.57;100.00;65101.44;5097393;27;45282;-54
2022/06/08 06:08:57;;;;;;;;;4.33;4.00;;;;;-143.57;100.00;65101.44;5097145;27;45354;-56
2022/06/08 06:11:23;;;;;;;;;1.67;1.67;;;;;-143.57;100.00;65101.44;5097228;27;45451;-53
2022/06/08 06:13:48;;;;;;;;;4.00;3.00;;;;;-143.57;100.00;65101.44;5096669;27;46420;-55
2022/06/08 06:16:14;;;;;;;;;3.67;3.67;;;;;-143.57;100.00;65101.44;5100369;27;45330;-56
2022/06/08 06:18:39;;;;;;;;;2.67;2.67;;;;;-143.57;100.00;65101.44;5100771;27;45844;-53
2022/06/08 06:21:04;;;;;;;;;5.67;2.67;;;;;-143.57;100.00;65101.44;5101060;27;45351;-55
2022/06/08 06:23:30;;;;;;;;;4.33;3.00;;;;;-143.57;100.00;65101.44;5100488;27;46208;-56
2022/06/08 06:25:56;;;;;;;;;3.67;3.67;;;;;-143.57;100.00;65101.44;5100522;27;45355;-54
2022/06/08 06:28:21;;;;;;;;;3.33;2.33;;;;;-143.57;100.00;65101.44;5100650;27;45539;-53
2022/06/08 06:30:47;;;;;;;;;2.67;2.67;;;;;-143.57;100.00;65101.44;5100831;27;45386;-54
2022/06/08 06:33:14;;;;;;;;;3.00;3.00;;;;;-143.57;100.00;65101.44;5082117;27;45851;-53
2022/06/08 06:35:41;;;;;;;;;2.67;2.67;;;;;-143.57;100.00;65101.44;5100501;27;45281;-56
2022/06/08 06:38:08;;;;;;;;;2.00;2.00;;;;;-143.57;100.00;65101.44;5100491;27;45339;-53
2022/06/08 06:40:34;;;;;;;;;3.00;3.00;;;;;-143.57;100.00;65101.44;5100697;27;45443;-54
2022/06/08 06:43:00;;;;;;;;;3.00;2.00;;;;;-143.57;100.00;65101.44;5099962;27;45532;-54
2022/06/08 06:45:26;;;;;;;;;4.67;3.00;;;;;-143.57;100.00;65101.44;5099679;27;45165;-54
2022/06/08 06:47:52;;;;;;;;;2.00;2.00;;;;;-143.57;100.00;65101.44;5100274;27;45393;-53
2022/06/08 06:50:18;;;;;;;;;4.00;2.00;;;;;-143.57;100.00;65101.44;5100376;27;45302;-54
2022/06/08 06:52:48;;;;;;;;;3.33;2.00;;;;;-143.57;100.00;65101.44;5100090;27;46348;-54
2022/06/08 06:55:20;;;;;;;;;2.67;2.67;;;;;-143.57;100.00;65101.44;5100096;27;45406;-54
2022/06/08 06:57:45;;;;;;;;;3.00;1.67;;;;;-143.57;100.00;65101.44;5100495;27;45362;-54
2022/06/08 07:00:11;;;;;;;;;2.00;2.00;;;;;-143.57;100.00;65101.44;5100218;27;45450;-54
2022/06/08 07:02:37;;;;;;;;;2.00;2.00;;;;;-143.57;100.00;65101.44;5099952;27;45504;-55
2022/06/08 07:05:02;;;;;;;;;1.00;1.00;;;;;-143.57;100.00;65101.44;5100312;27;45438;-53
2022/06/08 07:07:28;;;;;;;;;4.67;2.00;;;;;-143.57;100.00;65101.44;5100204;27;45335;-53
2022/06/08 07:09:53;;;;;;;;;1.00;1.00;;;;;-143.57;100.00;65101.44;5100111;27;45377;-54
2022/06/08 07:12:18;;;;;;;;;2.00;2.00;;;;;-143.57;100.00;65101.44;5099763;27;46101;-54
2022/06/08 07:14:44;;;;;;;;;2.00;2.00;;;;;-143.57;100.00;65101.44;5098359;27;45323;-53
2022/06/08 07:17:09;;;;;;;;;3.00;1.00;;;;;-143.57;100.00;65101.44;5099986;27;45295;-53
2022/06/08 07:19:35;;;;;;;;;1.00;1.00;;;;;-143.57;100.00;65101.44;5100266;27;45350;-55
2022/06/08 07:22:01;;;;;;;;;2.00;0.67;;;;;-143.57;100.00;65101.44;5099769;27;46016;-54
2022/06/08 07:24:31;;;;;;;;;2.67;2.67;;;;;-143.57;100.00;65101.44;5099858;27;45459;-54
2022/06/08 07:26:57;;;;;;;;;4.67;2.67;;;;;-143.57;100.00;65101.44;5098779;27;45200;-55
2022/06/08 07:29:22;;;;;;;;;1.00;1.00;;;;;-143.57;100.00;65101.44;5100157;27;45353;-51
2022/06/08 07:31:48;;;;;;;;;1.67;1.00;;;;;-143.57;100.00;65101.44;5099718;27;46124;-55
2022/06/08 07:34:14;;;;;;;;;3.67;2.00;;;;;-143.57;100.00;65101.44;5099918;27;45442;-53
2022/06/08 07:36:41;;;;;;;;;1.33;1.33;;;;;-143.57;100.00;65101.44;5100255;27;45466;-54
2022/06/08 07:39:07;;;;;;;;;1.33;1.33;;;;;-143.57;100.00;65101.44;5100159;27;45392;-53
2022/06/08 07:41:33;;;;;;;;;6.00;3.00;;;;;-143.57;100.00;65101.44;5115634;27;46564;-54
2022/06/08 07:43:58;;;;;;;;;4.00;3.00;;;;;-143.57;100.00;65101.44;5099402;27;45286;-54
2022/06/08 07:46:23;;;;;;;;;2.67;2.00;;;;;-143.57;100.00;65101.44;5099631;27;45525;-54
2022/06/08 07:51:33;;;;;;;;;2.00;1.33;;;;;-143.57;100.00;65101.44;5099356;27;45879;-52
2022/06/08 07:54:00;;;;;;;;;3.67;2.00;;;;;-143.57;100.00;65101.44;5099352;27;45220;-53
2022/06/08 07:56:26;;;;;;;;;3.33;2.00;;;;;-143.57;100.00;65101.44;5099541;27;45275;-55
2022/06/08 07:58:51;;;;;;;;;3.00;1.00;;;;;-143.57;100.00;65101.44;5099373;27;45394;-53
2022/06/08 08:01:16;;;;;;;;;2.00;1.00;;;;;-143.57;100.00;65101.44;5099156;27;46006;-52
2022/06/08 08:03:42;;;;;;;;;1.00;1.00;;;;;-143.57;100.00;65101.44;5099245;27;45409;-52
2022/06/08 08:06:09;;;;;;;;;2.00;2.00;;;;;-143.57;100.00;65101.44;5099434;27;45374;-50
2022/06/08 08:08:36;;;;;;;;;3.67;0.67;;;;;-143.57;100.00;65101.44;5099241;27;45508;-52
2022/06/08 08:11:02;;;;;;;;;1.00;1.00;;;;;-143.57;100.00;65101.44;5098979;27;46957;-52
2022/06/08 08:13:28;;;;;;;;;2.75;2.75;;;;;-143.57;100.00;65101.44;5099027;27;45456;-52
2022/06/08 08:15:53;;;;;;;;;1.00;1.00;;;;;-143.57;100.00;65101.44;5098899;27;45500;-54
2022/06/08 08:18:19;;;;;;;;;1.25;1.25;;;;;-143.57;100.00;65101.44;5099000;27;45460;-52
2022/06/08 08:20:46;;;;;;;;;2.00;1.00;;;;;-143.57;100.00;65101.44;5098838;27;45285;-55
2022/06/08 08:23:11;;;;;;;;;2.00;1.00;;;;;-143.57;100.00;65101.44;5098252;27;45174;-54
2022/06/08 08:25:37;;;;;;;;;2.50;1.00;;;;;-143.57;100.00;65101.44;5098795;27;45425;-53
2022/06/08 08:28:03;;;;;;;;;0.50;0.50;;;;;-143.57;100.00;65101.44;5099087;27;45227;-54
2022/06/08 08:30:30;;;;;;;;;1.00;1.00;;;;;-143.57;100.00;65101.44;5097630;27;45449;-55
2022/06/08 08:32:56;;;;;;;;;0.60;0.60;;;;;-143.57;100.00;65101.44;5098801;27;45355;-54
2022/06/08 08:35:23;;;;;;;;;0.50;0.50;;;;;-143.57;100.00;65101.44;5098811;27;45376;-55
2022/06/08 08:37:49;;;;;;;;;1.00;1.00;;;;;-143.57;100.00;65101.44;5098610;27;45355;-54
2022/06/08 08:40:53;;;;;;;;;1.25;1.25;;;;;-143.57;100.00;65101.44;5098625;27;46274;-54
2022/06/08 08:43:22;;;;;;;;;0.00;0.00;;;;;-143.57;100.00;65101.44;5015524;28;45480;-54
2022/06/08 08:45:59;;;;;;;;;1.00;1.00;;;;;-143.57;100.00;65101.44;5015650;28;45380;-55
2022/06/08 08:48:37;;;;;;;;;0.50;0.50;;;;;-143.57;100.00;65101.44;5015629;28;45354;-55
2022/06/08 08:51:32;;;;;;;;;2.00;1.00;;;;;-143.57;100.00;65101.44;5015331;28;46127;-54
2022/06/08 08:54:03;;;;;;;;;1.00;1.00;;;;;-143.57;100.00;65101.44;4975700;28;45458;-55
2022/06/08 08:56:35;;;;;;;;;1.00;1.00;;;;;-143.57;100.00;65101.44;4975967;28;45470;-54
2022/06/08 08:59:01;;;;;;;;;0.00;0.00;;;;;-143.57;100.00;65101.44;4976151;28;45532;-53
2022/06/08 09:01:28;;;;;;;;;0.00;0.00;;;;;-143.57;100.00;65101.44;4975653;28;46510;-54
2022/06/08 09:03:56;;;;;;;;;1.00;1.00;;;;;-143.57;100.00;65101.44;4975566;28;45387;-54
2022/06/08 09:06:24;;;;;;;;;0.00;0.00;;;;;-143.57;100.00;65101.44;4975950;28;45370;-54
2022/06/08 09:08:52;;;;;;;;;1.00;0.00;;;;;-143.57;100.00;65101.44;4975975;28;45594;-53
2022/06/08 09:11:27;;;;;;;;;0.00;0.00;;;;;-143.57;100.00;65101.44;4975633;28;46162;-53
2022/06/08 09:14:02;;;;;;;;;0.00;0.00;;;;;-143.57;100.00;65101.44;4975628;28;45267;-54
2022/06/08 09:16:47;;;;;;;;;2.00;0.50;;;;;-143.57;100.00;65101.44;4975406;28;45475;-54
2022/06/08 09:19:22;;;;;;;;;1.00;1.00;;;;;-143.57;100.00;65101.44;4969448;28;45299;-53
2022/06/08 09:22:04;;;;;;;;;0.75;0.75;;;;;-143.57;100.00;65101.44;5034859;28;46100;-53
2022/06/08 09:24:38;;;;;;;;;1.00;1.00;;;;;-143.57;100.00;65101.44;5034782;28;45446;-53
2022/06/08 09:27:22;;;;;;;;;0.00;0.00;;;;;-143.57;100.00;65101.44;5033833;28;45339;-53
2022/06/08 09:29:53;;;;;;;;;1.00;1.00;;;;;-143.57;100.00;65101.44;5021773;27;45487;-52
2022/06/08 09:32:39;;;;;;;;;0.80;0.80;;;;;-143.57;100.00;65101.44;5097473;27;46234;-53
2022/06/08 09:35:28;;;;;;;;;1.00;1.00;;;;;-143.57;100.00;65101.44;5097751;27;45319;-54
2022/06/08 09:38:06;;;;;;;;;1.00;1.00;;;;;-143.57;100.00;65101.44;5014654;28;45541;-53
2022/06/08 09:40:40;;;;;;;;;2.20;1.00;;;;;-143.57;100.00;65101.44;5015003;28;45392;-53
2022/06/08 09:43:27;;;;;;;;;1.00;1.00;;;;;-143.57;100.00;65101.44;5014424;28;47151;-53
2022/06/08 09:46:24;;;;;;;;;0.20;0.20;;;;;-143.57;100.00;65101.44;5014458;28;45530;-57
2022/06/08 09:51:55;;;;;;;;;2.00;1.00;;;;;-143.57;100.00;65101.44;5014814;28;45468;-54
2022/06/08 09:54:28;;;;;;;;;2.00;1.80;;;;;-143.57;100.00;65101.44;5014444;28;46066;-54
2022/06/08 09:57:24;;;;;;;;;1.00;1.00;;;;;-143.57;100.00;65101.44;5014750;28;45355;-53
2022/06/08 09:59:55;;;;;;;;;1.40;1.40;;;;;-143.57;100.00;65101.44;5014487;28;45481;-54
2022/06/08 10:02:34;;;;;;;;;1.00;1.00;;;;;-143.57;100.00;65101.44;5014703;28;45385;-54
2022/06/08 10:05:14;;;;;;;;;1.20;1.00;;;;;-143.57;100.00;65101.44;5014374;28;46123;-58
2022/06/08 10:08:10;;;;;;;;;2.60;2.00;;;;;-143.57;100.00;65101.44;5014442;28;45285;-56
2022/06/08 10:10:58;;;;;;;;;1.00;1.00;;;;;-143.57;100.00;65101.44;5014216;28;45257;-54
2022/06/08 10:13:33;;;;;;;;;0.00;0.00;;;;;-143.57;100.00;65101.44;5014575;28;45655;-54
2022/06/08 10:16:04;;;;;;;;;4.00;3.60;;;;;-143.57;100.00;65101.44;5089911;27;46374;-55
2022/06/08 10:18:43;;;;;;;;;5.00;4.60;;;;;-143.57;100.00;65101.44;5097277;27;45255;-54
2022/06/08 10:21:12;;;;;;;;;0.00;0.00;;;;;-143.57;100.00;65101.44;5097284;27;45309;-55
2022/06/08 10:23:44;;;;;;;;;0.20;0.20;;;;;-143.57;100.00;65101.44;5097389;27;45606;-54
2022/06/08 10:26:22;;;;;;;;;1.00;1.00;;;;;-143.57;100.00;65101.44;5096844;27;45979;-55
2022/06/08 10:28:55;;;;;;;;;0.00;0.00;;;;;-143.57;100.00;65101.44;5096884;27;45413;-55
2022/06/08 10:31:34;;;;;;;;;0.00;0.00;;;;;-143.57;100.00;65101.44;5097082;27;45605;-54
2022/06/08 10:34:10;;;;;;;;;1.00;1.00;;;;;-143.57;100.00;65101.44;5097029;27;45275;-55
2022/06/08 10:36:37;;;;;;;;;0.00;0.00;;;;;-143.57;100.00;65101.44;5096937;27;45345;-54
2022/06/08 10:39:05;;;;;;;;;2.40;1.80;;;;;-143.57;100.00;65101.44;5096800;27;45371;-55
2022/06/08 10:44:33;;;;;;;;;6.40;4.80;;;;;-143.57;100.00;65101.44;5097020;27;45490;-55
2022/06/08 10:47:14;;;;;;;;;2.40;1.40;;;;;-143.57;100.00;65101.44;5096398;27;46165;-54
2022/06/08 10:49:40;;;;;;;;;4.20;4.00;;;;;-143.57;100.00;65101.44;5078134;27;45366;-54
2022/06/08 10:52:17;;;;;;;;;5.00;4.00;;;;;-143.57;100.00;65101.44;5096810;27;45370;-54
2022/06/08 10:54:54;;;;;;;;;4.00;4.00;;;;;-143.57;100.00;65101.44;5096913;27;45402;-53
2022/06/08 10:57:35;;;;;;;;;4.60;4.20;;;;;-143.57;100.00;65101.44;5096504;27;45501;-55
2022/06/08 11:00:52;;;;;;;;;3.20;3.20;;;;;-143.57;100.00;65101.44;5096494;27;45213;-54
2022/06/08 11:03:36;;;;;;;;;5.40;4.00;;;;;-143.57;100.00;65101.44;5064765;27;45960;-53
2022/06/08 11:06:07;;;;;;;;;2.00;2.00;;;;;-143.57;100.00;65101.44;5100355;27;45410;-53
2022/06/08 11:08:51;;;;;;;;;3.20;3.20;;;;;-143.57;100.00;65101.44;5099794;27;46584;-54
2022/06/08 11:11:40;;;;;;;;;4.20;3.60;;;;;-143.57;100.00;65101.44;5099874;27;45399;-55
2022/06/08 11:14:44;;;;;;;;;2.00;2.00;;;;;-143.57;100.00;65101.44;5100082;27;45173;-53
2022/06/08 11:17:33;;;;;;;;;4.20;2.60;;;;;-143.57;100.00;65101.44;5098237;27;45320;-54
2022/06/08 11:20:33;;;;;;;;;2.40;2.40;;;;;-143.57;100.00;65101.44;5099876;27;45450;-55
2022/06/08 11:23:05;;;;;;;;;5.60;3.60;;;;;-143.57;100.00;65101.44;5016593;28;45468;-55
2022/06/08 11:25:49;;;;;;;;;2.20;2.20;;;;;-143.57;100.00;65101.44;5017319;28;45444;-54
2022/06/08 11:28:48;;;;;;;;;6.20;5.00;;;;;-143.57;100.00;65101.44;5017048;28;45465;-54
2022/06/08 11:31:25;;;;;;;;;3.20;3.20;;;;;-143.57;100.00;65101.44;5016462;28;46359;-53
2022/06/08 11:33:51;;;;;;;;;5.40;3.00;;;;;-143.57;100.00;65101.44;5016526;28;45356;-52
2022/06/08 11:36:47;;;;;;;;;3.40;3.40;;;;;-143.57;100.00;65101.44;5016628;28;45459;-53
2022/06/08 11:39:36;;;;;;;;;3.00;2.80;;;;;-143.57;100.00;65101.44;5016635;28;45487;-53